sensor_id;sensor_type;location;lat;lon;timestamp;P1;durP1;ratioP1;P2;durP2;ratioP2
7365;SDS011;3723;52.220;8.792;2022-07-23T02:20:51;7.40;;;1.87;;
7365;SDS011;3723;52.220;8.792;2022-07-23T02:23:23;7.57;;;1.73;;
7365;SDS011;3723;52.220;8.792;2022-07-23T02:25:52;9.03;;;2.13;;
7365;SDS011;3723;52.220;8.792;2022-07-23T02:28:44;9.10;;;2.27;;
7365;SDS011;3723;52.220;8.792;2022-07-23T02:49:59;10.43;;;2.20;;
7365;SDS011;3723;52.220;8.792;2022-07-23T02:53:03;6.90;;;1.50;;
7365;SDS011;3723;52.220;8.792;2022-07-23T02:59:35;8.30;;;1.87;;
7365;SDS011;3723;52.220;8.792;2022-07-23T03:02:49;8.13;;;1.83;;
7365;SDS011;3723;52.220;8.792;2022-07-23T03:22:44;12.73;;;2.17;;
7365;SDS011;3723;52.220;8.792;2022-07-23T03:29:03;9.53;;;1.77;;
7365;SDS011;3723;52.220;8.792;2022-07-23T06:33:04;7.10;;;1.00;;
7365;SDS011;3723;52.220;8.792;2022-07-23T06:39:13;7.63;;;1.33;;
7365;SDS011;3723;52.220;8.792;2022-07-23T08:40:54;7.90;;;0.83;;
7365;SDS011;3723;52.220;8.792;2022-07-23T09:43:04;7.77;;;1.00;;
7365;SDS011;3723;52.220;8.792;2022-07-23T09:56:13;7.13;;;0.60;;
7365;SDS011;3723;52.220;8.792;2022-07-23T11:00:16;6.37;;;0.63;;
7365;SDS011;3723;52.220;8.792;2022-07-23T11:23:25;6.30;;;0.70;;
7365;SDS011;3723;52.220;8.792;2022-07-23T11:32:02;5.90;;;0.60;;
7365;SDS011;3723;52.220;8.792;2022-07-23T13:08:52;6.03;;;0.60;;
7365;SDS011;3723;52.220;8.792;2022-07-23T13:18:14;5.73;;;0.60;;
7365;SDS011;3723;52.220;8.792;2022-07-23T13:31:15;6.00;;;0.70;;
7365;SDS011;3723;52.220;8.792;2022-07-23T13:40:23;5.83;;;0.50;;
7365;SDS011;3723;52.220;8.792;2022-07-23T13:46:10;6.13;;;0.80;;
7365;SDS011;3723;52.220;8.792;2022-07-23T14:04:00;5.90;;;0.60;;
7365;SDS011;3723;52.220;8.792;2022-07-23T14:13:37;7.53;;;0.80;;
7365;SDS011;3723;52.220;8.792;2022-07-23T14:16:40;5.80;;;0.60;;
7365;SDS011;3723;52.220;8.792;2022-07-23T14:43:09;10.03;;;0.70;;
7365;SDS011;3723;52.220;8.792;2022-07-23T14:52:35;5.73;;;0.60;;
7365;SDS011;3723;52.220;8.792;2022-07-23T14:55:36;5.77;;;0.60;;
7365;SDS011;3723;52.220;8.792;2022-07-23T14:58:20;9.37;;;1.43;;
7365;SDS011;3723;52.220;8.792;2022-07-23T15:24:37;5.80;;;0.60;;
7365;SDS011;3723;52.220;8.792;2022-07-23T15:30:43;6.10;;;0.70;;
7365;SDS011;3723;52.220;8.792;2022-07-23T15:33:20;5.80;;;0.60;;
7365;SDS011;3723;52.220;8.792;2022-07-23T15:36:11;6.30;;;0.70;;
7365;SDS011;3723;52.220;8.792;2022-07-23T15:39:01;7.10;;;1.13;;
7365;SDS011;3723;52.220;8.792;2022-07-23T15:41:33;6.20;;;0.50;;
7365;SDS011;3723;52.220;8.792;2022-07-23T15:44:00;6.57;;;0.70;;
7365;SDS011;3723;52.220;8.792;2022-07-23T15:46:27;6.97;;;1.00;;
7365;SDS011;3723;52.220;8.792;2022-07-23T15:48:54;8.53;;;1.20;;
7365;SDS011;3723;52.220;8.792;2022-07-23T15:51:27;6.57;;;0.70;;
7365;SDS011;3723;52.220;8.792;2022-07-23T16:32:05;6.00;;;0.70;;
7365;SDS011;3723;52.220;8.792;2022-07-23T16:34:33;8.80;;;0.80;;
7365;SDS011;3723;52.220;8.792;2022-07-23T16:37:17;6.30;;;0.70;;
7365;SDS011;3723;52.220;8.792;2022-07-23T16:50:26;5.70;;;0.57;;
7365;SDS011;3723;52.220;8.792;2022-07-23T16:56:21;5.97;;;0.60;;
7365;SDS011;3723;52.220;8.792;2022-07-23T17:05:52;6.40;;;0.60;;
7365;SDS011;3723;52.220;8.792;2022-07-23T17:14:48;6.40;;;0.60;;
7365;SDS011;3723;52.220;8.792;2022-07-23T17:17:43;5.90;;;0.60;;
7365;SDS011;3723;52.220;8.792;2022-07-23T17:32:50;6.30;;;0.70;;
7365;SDS011;3723;52.220;8.792;2022-07-23T17:49:02;6.10;;;0.80;;
7365;SDS011;3723;52.220;8.792;2022-07-23T20:23:54;8.60;;;1.23;;
7365;SDS011;3723;52.220;8.792;2022-07-23T20:26:22;6.60;;;1.03;;
7365;SDS011;3723;52.220;8.792;2022-07-23T20:28:52;6.37;;;1.10;;
7365;SDS011;3723;52.220;8.792;2022-07-23T20:31:19;6.43;;;0.70;;
7365;SDS011;3723;52.220;8.792;2022-07-23T20:33:50;7.57;;;2.03;;
7365;SDS011;3723;52.220;8.792;2022-07-23T20:36:22;6.70;;;1.03;;
7365;SDS011;3723;52.220;8.792;2022-07-23T20:38:53;7.00;;;1.00;;
7365;SDS011;3723;52.220;8.792;2022-07-23T20:41:22;6.10;;;0.90;;
7365;SDS011;3723;52.220;8.792;2022-07-23T20:43:55;6.20;;;1.00;;
7365;SDS011;3723;52.220;8.792;2022-07-23T20:46:22;6.20;;;1.00;;
7365;SDS011;3723;52.220;8.792;2022-07-23T20:48:49;6.57;;;0.97;;
7365;SDS011;3723;52.220;8.792;2022-07-23T20:51:20;7.17;;;1.10;;
7365;SDS011;3723;52.220;8.792;2022-07-23T20:53:47;6.30;;;1.00;;
7365;SDS011;3723;52.220;8.792;2022-07-23T20:56:17;6.03;;;0.90;;
7365;SDS011;3723;52.220;8.792;2022-07-23T20:58:46;6.30;;;0.93;;
7365;SDS011;3723;52.220;8.792;2022-07-23T21:01:15;6.50;;;0.90;;
7365;SDS011;3723;52.220;8.792;2022-07-23T21:03:43;5.87;;;0.80;;
7365;SDS011;3723;52.220;8.792;2022-07-23T21:06:14;6.57;;;1.07;;
7365;SDS011;3723;52.220;8.792;2022-07-23T21:08:42;8.10;;;1.10;;
7365;SDS011;3723;52.220;8.792;2022-07-23T21:11:10;6.33;;;1.00;;
7365;SDS011;3723;52.220;8.792;2022-07-23T21:13:43;6.50;;;1.20;;
7365;SDS011;3723;52.220;8.792;2022-07-23T21:16:13;6.27;;;0.80;;
7365;SDS011;3723;52.220;8.792;2022-07-23T21:18:41;6.23;;;1.00;;
7365;SDS011;3723;52.220;8.792;2022-07-23T21:21:14;6.43;;;1.00;;
7365;SDS011;3723;52.220;8.792;2022-07-23T21:23:43;6.50;;;1.20;;
7365;SDS011;3723;52.220;8.792;2022-07-23T21:26:12;6.10;;;0.80;;
7365;SDS011;3723;52.220;8.792;2022-07-23T21:28:44;6.20;;;0.87;;
7365;SDS011;3723;52.220;8.792;2022-07-23T21:31:12;7.10;;;1.33;;
7365;SDS011;3723;52.220;8.792;2022-07-23T21:33:39;6.30;;;1.10;;
7365;SDS011;3723;52.220;8.792;2022-07-23T21:36:09;6.13;;;1.00;;
7365;SDS011;3723;52.220;8.792;2022-07-23T21:38:36;8.00;;;0.97;;
7365;SDS011;3723;52.220;8.792;2022-07-23T21:41:06;7.60;;;1.30;;
7365;SDS011;3723;52.220;8.792;2022-07-23T21:43:34;10.20;;;1.27;;
7365;SDS011;3723;52.220;8.792;2022-07-23T21:46:03;6.97;;;1.13;;
7365;SDS011;3723;52.220;8.792;2022-07-23T21:48:30;7.53;;;1.23;;
7365;SDS011;3723;52.220;8.792;2022-07-23T21:50:57;7.30;;;1.30;;
7365;SDS011;3723;52.220;8.792;2022-07-23T21:53:24;7.37;;;1.20;;
7365;SDS011;3723;52.220;8.792;2022-07-23T21:55:54;6.60;;;1.13;;
7365;SDS011;3723;52.220;8.792;2022-07-23T21:58:21;6.30;;;1.03;;
7365;SDS011;3723;52.220;8.792;2022-07-23T22:00:48;6.37;;;1.00;;
7365;SDS011;3723;52.220;8.792;2022-07-23T22:03:18;9.40;;;1.47;;
7365;SDS011;3723;52.220;8.792;2022-07-23T22:05:47;7.40;;;1.30;;
7365;SDS011;3723;52.220;8.792;2022-07-23T22:08:14;6.53;;;0.97;;
7365;SDS011;3723;52.220;8.792;2022-07-23T22:10:41;6.30;;;1.00;;
7365;SDS011;3723;52.220;8.792;2022-07-23T22:13:08;6.77;;;0.90;;
7365;SDS011;3723;52.220;8.792;2022-07-23T22:15:35;6.33;;;1.00;;
7365;SDS011;3723;52.220;8.792;2022-07-23T22:18:02;6.90;;;1.27;;
7365;SDS011;3723;52.220;8.792;2022-07-23T22:20:30;7.27;;;1.20;;
7365;SDS011;3723;52.220;8.792;2022-07-23T22:22:57;7.27;;;1.10;;
7365;SDS011;3723;52.220;8.792;2022-07-23T22:25:25;6.17;;;1.10;;
7365;SDS011;3723;52.220;8.792;2022-07-23T22:27:52;6.00;;;0.90;;
7365;SDS011;3723;52.220;8.792;2022-07-23T22:30:19;6.73;;;1.00;;
7365;SDS011;3723;52.220;8.792;2022-07-23T22:32:47;6.60;;;1.00;;
7365;SDS011;3723;52.220;8.792;2022-07-23T22:35:14;6.10;;;0.90;;
7365;SDS011;3723;52.220;8.792;2022-07-23T22:37:43;6.27;;;1.00;;
7365;SDS011;3723;52.220;8.792;2022-07-23T22:40:11;6.20;;;0.90;;
7365;SDS011;3723;52.220;8.792;2022-07-23T22:42:41;8.93;;;2.03;;
7365;SDS011;3723;52.220;8.792;2022-07-23T22:45:08;6.43;;;1.00;;
7365;SDS011;3723;52.220;8.792;2022-07-23T22:47:37;7.10;;;1.03;;
7365;SDS011;3723;52.220;8.792;2022-07-23T22:50:04;8.17;;;1.00;;
7365;SDS011;3723;52.220;8.792;2022-07-23T22:52:32;7.90;;;1.70;;
7365;SDS011;3723;52.220;8.792;2022-07-23T22:55:00;7.37;;;1.63;;
7365;SDS011;3723;52.220;8.792;2022-07-23T22:57:27;6.83;;;1.27;;
7365;SDS011;3723;52.220;8.792;2022-07-23T22:59:54;6.80;;;1.47;;
7365;SDS011;3723;52.220;8.792;2022-07-23T23:02:21;6.67;;;1.60;;
7365;SDS011;3723;52.220;8.792;2022-07-23T23:04:48;6.00;;;1.10;;
7365;SDS011;3723;52.220;8.792;2022-07-23T23:07:56;6.37;;;1.33;;
7365;SDS011;3723;52.220;8.792;2022-07-23T23:44:37;10.13;;;2.40;;
